Strona główna
METAR-TAF:

METAR-TAF

Lotnisko :

Teheran, Iran

Port lotniczy Teheran-Mehrabad

Szerokość geograficzna: 35-41N, Długość geograficzna: 051-21E, wysokość: 1204 m

Aktualna obserwacja pogody

Raport powstał 41 minut temu, godzina 11:00 UTC
Wiatr 8 kt od południowy zachód
Temperatura 10°C
Wilgotność 29%
Ciśnienie 1015 hPa
Widzialność: 8000 m
Mało chmury na wysokości 3500 ft

METAR: OIII 181100Z 22008KT 8000 FEW035 10/M07 Q1015 A2998 NOSIG

czas: 15:11 (11:41 UTC)

Prognoza

Raport powstał 31 minut temu, godzina 11:10 UTC
Prognoza ważna od 18 godzina 12 UTC do 19 godzina 18 UTC
Wiatr 8 kt od zachodnio-południowy zachód
Widzialność: 7000 m
Mało chmury na wysokości 3500 ft
Przejściowo
od 19 godzina 00 UTC do 19 godzina 03 UTC
Widzialność: 4000 m
zmętnienie
Stopniowe zmiany
od 19 godzina 08 UTC do 19 godzina 09 UTC
Wiatr 10 kt od wschodnio-południowy wschód

TAF: OIII 181110Z 1812/1918 25004MPS 7000 FEW035 TEMPO 1900/1903 4000 HZ BECMG 1908/1909 12005MPS

Obserwacja i prognoza pogody dla ponad 4000 lotnisk (raport METAR i TAF).

Dostępne stacje oznaczono żółtymi i czerwonymi punktami na mapie.

Najedź kursorem aby zobaczyć nazwę stacji.

Kliknij aby zobaczyć obserwacje i prognozy pogody.

Aby zmienić mapę: kliknij na zielony przycisk z czarnym krzyżykiem, aby powiększyć; na zielony przycisk z myślnikiem, aby pomniejszyć; na zielone strzałki, aby przejść do map sąsiednich.


METAR-TAF: